createdAt,value
2022-07-28T00:01:16.474Z,46.79
2022-07-28T00:03:48.755Z,47.79
2022-07-28T00:06:16.933Z,47.49
2022-07-28T00:08:44.991Z,47.73
2022-07-28T00:11:14.821Z,47.61
2022-07-28T00:13:42.906Z,48.14
2022-07-28T00:16:11.192Z,48.30
2022-07-28T00:18:39.326Z,47.93
2022-07-28T00:21:07.392Z,49.76
2022-07-28T00:23:39.221Z,49.55
2022-07-28T00:26:08.727Z,49.54
2022-07-28T00:28:38.387Z,49.54
2022-07-28T00:31:08.710Z,49.20
2022-07-28T00:33:40.047Z,49.93
2022-07-28T00:36:08.809Z,48.83
2022-07-28T00:38:40.793Z,49.57
2022-07-28T00:41:12.588Z,49.91
2022-07-28T00:43:43.151Z,51.45
2022-07-28T00:46:11.410Z,50.72
2022-07-28T00:48:40.297Z,51.30
2022-07-28T00:51:09.085Z,52.31
2022-07-28T00:53:37.768Z,51.35
2022-07-28T00:56:07.056Z,51.47
2022-07-28T00:58:35.871Z,51.63
2022-07-28T01:01:05.964Z,51.68
2022-07-28T01:03:35.732Z,51.76
2022-07-28T01:06:17.578Z,52.77
2022-07-28T01:08:57.662Z,55.22
2022-07-28T01:11:42.836Z,54.77
2022-07-28T01:14:22.347Z,54.73
2022-07-28T01:16:57.573Z,55.46
2022-07-28T01:19:37.617Z,57.42
2022-07-28T01:22:10.499Z,59.13
2022-07-28T01:24:52.143Z,60.55
2022-07-28T01:27:36.448Z,61.72
2022-07-28T01:30:08.738Z,62.38
2022-07-28T01:32:43.730Z,62.53
2022-07-28T01:35:15.329Z,65.65
2022-07-28T01:37:47.093Z,67.76
2022-07-28T01:40:18.658Z,69.18
2022-07-28T01:42:52.309Z,69.68
2022-07-28T01:45:21.678Z,70.01
2022-07-28T01:47:52.690Z,69.22
2022-07-28T01:50:23.759Z,67.85
2022-07-28T01:52:52.733Z,68.01
2022-07-28T01:55:23.190Z,68.36
2022-07-28T01:57:54.216Z,68.40
2022-07-28T02:00:23.661Z,67.41
2022-07-28T02:02:54.840Z,67.07
2022-07-28T02:05:24.342Z,67.02
2022-07-28T02:07:54.288Z,66.66
2022-07-28T02:10:22.507Z,66.93
2022-07-28T02:12:52.731Z,67.48
2022-07-28T02:15:22.753Z,68.56
2022-07-28T02:17:55.008Z,69.64
2022-07-28T02:20:23.746Z,71.65
2022-07-28T02:22:54.126Z,73.26
2022-07-28T02:25:22.782Z,72.37
2022-07-28T02:27:54.292Z,72.96
2022-07-28T02:30:29.282Z,72.71
2022-07-28T02:33:03.436Z,71.93
2022-07-28T02:35:38.853Z,73.94
2022-07-28T02:38:12.716Z,73.84
2022-07-28T02:40:43.971Z,73.94
2022-07-28T02:43:15.525Z,77.76
2022-07-28T02:45:46.731Z,76.62
2022-07-28T02:48:18.517Z,77.95
2022-07-28T02:50:47.898Z,77.99
2022-07-28T02:53:17.622Z,75.69
2022-07-28T02:55:48.754Z,76.92
2022-07-28T02:58:19.342Z,76.29
2022-07-28T03:00:48.908Z,74.54
2022-07-28T03:03:19.666Z,74.79
2022-07-28T03:05:48.563Z,74.42
2022-07-28T03:08:17.994Z,74.52
2022-07-28T03:10:46.499Z,74.33
2022-07-28T03:13:14.711Z,76.56
2022-07-28T03:15:42.785Z,78.55
2022-07-28T03:18:10.887Z,78.65
2022-07-28T03:20:40.244Z,78.19
2022-07-28T03:23:09.945Z,78.20
2022-07-28T03:25:44.435Z,80.28
2022-07-28T03:28:17.659Z,78.96
2022-07-28T03:30:51.563Z,77.02
2022-07-28T03:33:19.877Z,83.18
2022-07-28T03:35:52.679Z,74.93
2022-07-28T03:38:24.751Z,74.54
2022-07-28T03:40:54.977Z,71.59
2022-07-28T03:43:26.117Z,75.21
2022-07-28T03:45:54.306Z,71.73
2022-07-28T03:48:24.363Z,70.61
2022-07-28T03:50:53.706Z,73.98
2022-07-28T03:53:23.788Z,69.93
2022-07-28T03:55:51.902Z,68.09
2022-07-28T03:58:19.907Z,66.54
2022-07-28T04:00:48.283Z,65.88
2022-07-28T04:03:22.701Z,65.44
2022-07-28T04:06:06.389Z,64.10
2022-07-28T04:08:34.961Z,63.96
2022-07-28T04:11:03.017Z,63.19
2022-07-28T04:13:32.134Z,62.84
2022-07-28T04:16:00.562Z,63.93
2022-07-28T04:18:28.542Z,63.44
2022-07-28T04:20:56.683Z,63.00
2022-07-28T04:23:26.314Z,63.66
2022-07-28T04:25:54.368Z,62.98
2022-07-28T04:28:22.365Z,63.73
2022-07-28T04:30:50.800Z,64.25
2022-07-28T04:33:19.646Z,64.44
2022-07-28T04:35:47.838Z,64.88
2022-07-28T04:38:17.773Z,65.27
2022-07-28T04:40:47.760Z,65.25
2022-07-28T04:43:16.328Z,65.15
2022-07-28T04:45:53.248Z,64.74
2022-07-28T04:48:23.103Z,64.99
2022-07-28T04:50:52.765Z,65.37
2022-07-28T04:53:21.400Z,65.32
2022-07-28T04:55:54.617Z,64.35
2022-07-28T04:58:23.562Z,64.21
2022-07-28T05:00:52.382Z,64.65
2022-07-28T05:03:21.251Z,64.17
2022-07-28T05:05:54.310Z,64.53
2022-07-28T05:08:25.830Z,64.41
2022-07-28T05:10:56.860Z,64.57
2022-07-28T05:13:28.917Z,63.76
2022-07-28T05:16:01.476Z,63.94
2022-07-28T05:18:29.567Z,64.37
2022-07-28T05:20:57.565Z,64.83
2022-07-28T05:23:25.487Z,63.78
2022-07-28T05:25:53.779Z,63.06
2022-07-28T05:28:23.179Z,64.08
2022-07-28T05:30:51.250Z,61.82
2022-07-28T05:33:19.379Z,60.17
2022-07-28T05:35:53.253Z,60.70
2022-07-28T05:38:21.678Z,59.36
2022-07-28T05:40:50.383Z,58.41
2022-07-28T05:43:18.458Z,58.92
2022-07-28T05:45:48.395Z,58.39
2022-07-28T05:48:18.288Z,57.89
2022-07-28T05:50:46.467Z,57.73
2022-07-28T05:53:14.530Z,56.74
2022-07-28T05:55:59.689Z,57.60
2022-07-28T05:58:29.713Z,56.50
2022-07-28T06:01:01.422Z,55.55
2022-07-28T06:03:31.889Z,56.36
2022-07-28T06:06:15.272Z,56.39
2022-07-28T06:08:46.429Z,55.55
2022-07-28T06:11:22.114Z,56.07
2022-07-28T06:13:52.032Z,56.35
2022-07-28T06:16:22.806Z,57.69
2022-07-28T06:18:51.635Z,56.42
2022-07-28T06:21:19.643Z,55.64
2022-07-28T06:23:47.623Z,55.22
2022-07-28T06:26:15.722Z,52.67
2022-07-28T06:28:43.856Z,51.95
2022-07-28T06:31:11.881Z,51.30
2022-07-28T06:33:41.277Z,50.92
2022-07-28T06:36:09.269Z,50.37
2022-07-28T06:38:37.348Z,49.15
2022-07-28T06:41:05.471Z,49.30
2022-07-28T06:43:38.288Z,47.50
2022-07-28T06:46:07.295Z,46.61
2022-07-28T06:48:37.518Z,45.78
2022-07-28T06:51:07.196Z,46.85
2022-07-28T06:53:35.084Z,47.04
2022-07-28T06:56:04.627Z,45.75
2022-07-28T06:58:33.395Z,45.46
2022-07-28T07:01:02.477Z,45.85
2022-07-28T07:03:30.776Z,45.53
2022-07-28T07:05:58.809Z,45.28
2022-07-28T07:08:28.217Z,44.09
2022-07-28T07:10:56.832Z,43.13
2022-07-28T07:13:25.137Z,42.78
2022-07-28T07:15:53.339Z,42.71
2022-07-28T07:18:21.538Z,43.47
2022-07-28T07:20:49.975Z,43.44
2022-07-28T07:23:17.899Z,43.90
2022-07-28T07:25:47.279Z,42.92
2022-07-28T07:28:15.299Z,42.32
2022-07-28T07:30:43.482Z,42.57
2022-07-28T07:33:11.480Z,40.79
2022-07-28T07:35:39.648Z,41.64
2022-07-28T07:38:07.640Z,39.86
2022-07-28T07:40:35.950Z,40.69
2022-07-28T07:43:05.429Z,39.94
2022-07-28T07:45:34.281Z,40.24
2022-07-28T07:48:02.667Z,39.73
2022-07-28T07:50:31.215Z,39.45
2022-07-28T07:52:59.427Z,39.21
2022-07-28T07:55:27.509Z,37.75
2022-07-28T07:58:02.566Z,39.08
2022-07-28T08:00:32.338Z,37.66
2022-07-28T08:03:00.979Z,36.20
2022-07-28T08:05:35.879Z,35.49
2022-07-28T08:08:06.155Z,34.19
2022-07-28T08:10:34.374Z,36.73
2022-07-28T08:13:03.069Z,38.51
2022-07-28T08:15:32.567Z,38.15
2022-07-28T08:18:00.729Z,41.03
2022-07-28T08:20:29.091Z,38.28
2022-07-28T08:22:58.785Z,39.71
2022-07-28T08:25:27.310Z,36.73
2022-07-28T08:27:55.657Z,36.55
2022-07-28T08:30:27.476Z,37.11
2022-07-28T08:32:59.677Z,36.54
2022-07-28T08:35:33.655Z,34.10
2022-07-28T08:38:03.392Z,34.35
2022-07-28T08:40:32.732Z,33.77
2022-07-28T08:43:09.780Z,33.32
2022-07-28T08:45:40.421Z,34.26
2022-07-28T08:48:13.860Z,32.08
2022-07-28T08:50:44.868Z,32.38
2022-07-28T08:53:15.022Z,30.94
2022-07-28T08:55:44.943Z,30.32
2022-07-28T08:58:13.433Z,30.69
2022-07-28T09:00:42.465Z,31.13
2022-07-28T09:03:13.821Z,30.90
2022-07-28T09:05:43.561Z,31.49
2022-07-28T09:08:12.303Z,30.04
2022-07-28T09:10:40.357Z,30.94
2022-07-28T09:13:08.361Z,30.83
2022-07-28T09:15:37.565Z,30.63
2022-07-28T09:18:05.580Z,30.83
2022-07-28T09:20:36.819Z,29.38
2022-07-28T09:23:33.623Z,29.67
2022-07-28T09:26:10.828Z,30.50
2022-07-28T09:28:53.733Z,28.52
2022-07-28T09:31:23.707Z,29.61
2022-07-28T09:34:01.298Z,29.55
2022-07-28T09:36:37.921Z,30.73
2022-07-28T09:39:06.028Z,29.34
2022-07-28T09:41:47.626Z,31.07
2022-07-28T09:44:19.616Z,29.79
2022-07-28T09:46:48.112Z,30.36
2022-07-28T09:49:16.560Z,28.21
2022-07-28T09:52:00.400Z,30.44
2022-07-28T09:54:28.404Z,27.48
2022-07-28T09:56:56.628Z,30.00
2022-07-28T09:59:25.879Z,28.45
2022-07-28T10:02:01.568Z,27.84
2022-07-28T10:04:32.493Z,27.36
2022-07-28T10:07:07.032Z,25.45
2022-07-28T10:09:38.388Z,27.76
2022-07-28T10:12:20.189Z,27.30
2022-07-28T10:14:48.737Z,27.26
2022-07-28T10:17:29.080Z,27.41
2022-07-28T10:19:58.801Z,27.10
2022-07-28T10:22:32.891Z,27.57
2022-07-28T10:25:03.342Z,29.20
2022-07-28T10:27:32.611Z,27.46
2022-07-28T10:30:02.316Z,28.34
2022-07-28T10:32:37.341Z,28.93
2022-07-28T10:35:08.781Z,29.38
2022-07-28T10:37:40.597Z,29.23
2022-07-28T10:40:11.042Z,29.39
2022-07-28T10:42:40.748Z,26.81
2022-07-28T10:45:12.026Z,26.92
2022-07-28T10:47:40.408Z,26.28
2022-07-28T10:50:09.541Z,27.02
2022-07-28T10:52:50.569Z,25.79
2022-07-28T10:55:31.726Z,26.65
2022-07-28T10:58:11.109Z,25.76
2022-07-28T11:00:55.871Z,25.77
2022-07-28T11:03:44.344Z,28.43
2022-07-28T11:06:27.104Z,28.58
2022-07-28T11:08:57.471Z,28.97
2022-07-28T11:11:45.107Z,29.37
2022-07-28T11:14:33.765Z,28.66
2022-07-28T11:17:24.092Z,28.74
2022-07-28T11:20:26.702Z,30.76
2022-07-28T11:22:49.126Z,28.89
2022-07-28T11:25:22.426Z,29.33
2022-07-28T11:28:01.192Z,29.33
2022-07-28T11:31:02.481Z,27.27
2022-07-28T11:33:57.442Z,26.63
2022-07-28T11:36:25.484Z,24.18
2022-07-28T11:39:22.706Z,23.39
2022-07-28T11:41:52.099Z,24.22
2022-07-28T11:44:28.241Z,26.72
2022-07-28T11:47:17.020Z,26.95
2022-07-28T11:49:46.131Z,26.75
2022-07-28T11:52:21.673Z,27.71
2022-07-28T11:54:56.446Z,28.01
2022-07-28T11:57:27.630Z,27.99
2022-07-28T12:00:03.391Z,27.22
2022-07-28T12:02:35.305Z,24.66
2022-07-28T12:05:10.706Z,24.08
2022-07-28T12:07:42.098Z,24.92
2022-07-28T12:10:53.501Z,25.08
2022-07-28T12:13:27.031Z,27.70
2022-07-28T12:15:55.221Z,28.39
2022-07-28T12:18:24.591Z,28.99
2022-07-28T12:20:54.673Z,28.17
2022-07-28T12:23:38.800Z,29.17
2022-07-28T12:26:13.417Z,30.23
2022-07-28T12:28:50.620Z,27.90
2022-07-28T12:31:18.715Z,27.86
2022-07-28T12:33:46.754Z,27.37
2022-07-28T12:36:18.738Z,27.26
2022-07-28T12:38:47.286Z,26.11
2022-07-28T12:41:16.484Z,27.20
2022-07-28T12:43:52.929Z,27.79
2022-07-28T12:46:23.069Z,26.48
2022-07-28T12:48:55.649Z,27.57
2022-07-28T12:51:34.717Z,28.39
2022-07-28T12:54:03.153Z,28.78
2022-07-28T12:56:31.851Z,27.83
2022-07-28T12:59:10.095Z,27.58
2022-07-28T13:01:52.191Z,26.29
2022-07-28T13:04:38.883Z,24.76
2022-07-28T13:07:09.748Z,24.73
2022-07-28T13:09:41.447Z,24.84
2022-07-28T13:12:17.270Z,25.88
2022-07-28T13:14:51.746Z,26.86
2022-07-28T13:17:20.379Z,24.90
2022-07-28T13:19:49.422Z,24.47
2022-07-28T13:22:26.792Z,25.18
2022-07-28T13:24:56.828Z,25.41
2022-07-28T13:27:33.023Z,25.39
2022-07-28T13:30:02.430Z,27.90
2022-07-28T13:32:31.231Z,25.74
2022-07-28T13:34:59.238Z,25.68
2022-07-28T13:37:27.491Z,27.49
2022-07-28T13:39:55.556Z,28.59
2022-07-28T13:42:23.975Z,27.71
2022-07-28T13:44:52.176Z,27.15
2022-07-28T13:47:21.532Z,29.24
2022-07-28T13:49:49.594Z,26.37
2022-07-28T13:52:32.951Z,26.53
2022-07-28T13:55:05.881Z,25.91
2022-07-28T13:57:36.380Z,26.59
2022-07-28T14:00:07.566Z,27.55
2022-07-28T14:02:37.399Z,27.31
2022-07-28T14:05:06.241Z,25.86
2022-07-28T14:07:34.286Z,27.29
2022-07-28T14:10:02.443Z,26.74
2022-07-28T14:12:30.770Z,27.44
2022-07-28T14:14:59.101Z,27.55
2022-07-28T14:17:43.510Z,28.07
2022-07-28T14:20:15.660Z,28.60
2022-07-28T14:22:44.821Z,27.39
2022-07-28T14:25:20.561Z,29.84
2022-07-28T14:27:50.719Z,29.02
2022-07-28T14:30:19.558Z,28.67
2022-07-28T14:32:47.567Z,28.59
2022-07-28T14:35:17.006Z,28.95
2022-07-28T14:40:33.291Z,30.70
2022-07-28T14:43:07.650Z,29.18
2022-07-28T14:46:00.531Z,29.30
2022-07-28T14:48:24.149Z,29.96
2022-07-28T14:50:55.310Z,29.50
2022-07-28T14:53:24.065Z,30.50
2022-07-28T14:55:55.997Z,30.52
2022-07-28T14:58:23.986Z,30.59
2022-07-28T15:00:52.144Z,30.72
2022-07-28T15:03:20.405Z,29.39
2022-07-28T15:05:48.412Z,29.91
2022-07-28T15:08:17.886Z,30.79
2022-07-28T15:10:45.868Z,30.40
2022-07-28T15:13:17.120Z,29.67
2022-07-28T15:15:45.389Z,30.52
2022-07-28T15:18:13.642Z,30.75
2022-07-28T15:20:43.182Z,30.13
2022-07-28T15:23:11.602Z,29.56
2022-07-28T15:25:40.955Z,29.65
2022-07-28T15:28:09.170Z,30.12
2022-07-28T15:30:41.400Z,30.24
2022-07-28T15:33:17.895Z,30.46
2022-07-28T15:35:58.113Z,29.36
2022-07-28T15:38:29.160Z,30.56
2022-07-28T15:40:59.692Z,29.87
2022-07-28T15:43:28.108Z,29.71
2022-07-28T15:45:57.323Z,30.31
2022-07-28T15:48:25.598Z,30.30
2022-07-28T15:50:53.742Z,31.35
2022-07-28T15:53:21.800Z,30.54
2022-07-28T15:55:51.529Z,30.97
2022-07-28T15:58:22.035Z,30.20
2022-07-28T16:00:50.380Z,31.55
2022-07-28T16:03:18.860Z,30.14
2022-07-28T16:05:49.732Z,29.75
2022-07-28T16:08:22.975Z,29.99
2022-07-28T16:10:52.372Z,30.21
2022-07-28T16:13:36.450Z,30.11
2022-07-28T16:16:08.075Z,29.63
2022-07-28T16:18:37.280Z,29.85
2022-07-28T16:21:05.856Z,30.51
2022-07-28T16:23:34.728Z,31.24
2022-07-28T16:26:04.995Z,29.65
2022-07-28T16:28:34.491Z,30.39
2022-07-28T16:31:02.627Z,31.25
2022-07-28T16:33:33.670Z,30.53
2022-07-28T16:36:02.333Z,29.76
2022-07-28T16:38:30.507Z,30.17
2022-07-28T16:40:58.656Z,29.62
2022-07-28T16:43:26.755Z,29.16
2022-07-28T16:45:56.355Z,29.23
2022-07-28T16:48:24.473Z,30.85
2022-07-28T16:50:52.520Z,31.19
2022-07-28T16:53:20.577Z,31.28
2022-07-28T16:55:48.871Z,30.83
2022-07-28T16:58:17.991Z,31.21
2022-07-28T17:00:46.059Z,32.09
2022-07-28T17:03:16.875Z,32.77
2022-07-28T17:05:45.315Z,31.68
2022-07-28T17:08:13.519Z,31.84
2022-07-28T17:10:41.686Z,31.82
2022-07-28T17:13:11.902Z,32.69
2022-07-28T17:15:41.433Z,32.45
2022-07-28T17:18:09.613Z,32.67
2022-07-28T17:20:42.612Z,32.74
2022-07-28T17:23:11.433Z,32.41
2022-07-28T17:28:28.468Z,33.43
2022-07-28T17:30:56.878Z,32.96
2022-07-28T17:33:25.342Z,32.93
2022-07-28T17:35:56.073Z,33.61
2022-07-28T17:38:31.017Z,32.73
2022-07-28T17:41:03.724Z,32.82
2022-07-28T17:43:32.741Z,33.08
2022-07-28T17:46:01.178Z,33.21
2022-07-28T17:48:31.075Z,33.73
2022-07-28T17:51:00.651Z,33.76
2022-07-28T17:53:28.761Z,33.23
2022-07-28T17:56:01.021Z,33.50
2022-07-28T17:58:32.184Z,33.81
2022-07-28T18:01:10.154Z,33.82
2022-07-28T18:03:58.163Z,33.92
2022-07-28T18:06:33.734Z,34.57
2022-07-28T18:09:05.679Z,34.29
2022-07-28T18:11:43.377Z,34.26
2022-07-28T18:14:24.934Z,34.85
2022-07-28T18:16:53.066Z,34.82
2022-07-28T18:19:21.202Z,35.34
2022-07-28T18:21:50.674Z,35.82
2022-07-28T18:24:21.631Z,36.18
2022-07-28T18:26:49.746Z,36.11
2022-07-28T18:29:19.196Z,36.37
2022-07-28T18:31:47.489Z,36.65
2022-07-28T18:34:16.406Z,36.78
2022-07-28T18:36:45.736Z,36.41
2022-07-28T18:39:15.298Z,36.64
2022-07-28T18:41:46.331Z,36.73
2022-07-28T18:44:15.219Z,37.13
2022-07-28T18:46:43.856Z,37.14
2022-07-28T18:49:12.070Z,36.76
2022-07-28T18:51:40.222Z,37.03
2022-07-28T18:54:21.499Z,36.32
2022-07-28T18:56:53.048Z,36.12
2022-07-28T18:59:21.159Z,36.84
2022-07-28T19:01:49.301Z,36.56
2022-07-28T19:04:17.856Z,36.65
2022-07-28T19:06:46.211Z,36.68
2022-07-28T19:09:15.792Z,36.88
2022-07-28T19:11:46.262Z,37.08
2022-07-28T19:14:15.869Z,37.20
2022-07-28T19:16:44.465Z,37.70
2022-07-28T19:19:12.915Z,37.65
2022-07-28T19:21:43.471Z,37.65
2022-07-28T19:24:12.385Z,38.28
2022-07-28T19:26:43.372Z,38.24
2022-07-28T19:29:11.723Z,38.36
2022-07-28T19:31:41.310Z,38.71
2022-07-28T19:34:09.571Z,38.32
2022-07-28T19:36:37.815Z,39.67
2022-07-28T19:39:05.995Z,39.19
2022-07-28T19:41:34.200Z,38.37
2022-07-28T19:44:03.656Z,38.75
2022-07-28T19:46:31.709Z,38.40
2022-07-28T19:48:59.900Z,38.22
2022-07-28T19:51:28.148Z,38.11
2022-07-28T19:53:58.526Z,37.79
2022-07-28T19:56:31.580Z,37.80
2022-07-28T19:59:00.239Z,37.70
2022-07-28T20:01:30.026Z,37.40
2022-07-28T20:04:03.133Z,37.72
2022-07-28T20:06:32.996Z,37.96
2022-07-28T20:09:01.626Z,38.23
2022-07-28T20:11:30.013Z,38.19
2022-07-28T20:13:58.125Z,38.28
2022-07-28T20:16:26.382Z,38.23
2022-07-28T20:18:56.875Z,38.68
2022-07-28T20:21:26.135Z,38.63
2022-07-28T20:23:55.547Z,39.21
2022-07-28T20:26:25.820Z,39.27
2022-07-28T20:28:54.063Z,39.15
2022-07-28T20:31:22.247Z,39.44
2022-07-28T20:33:50.810Z,38.83
2022-07-28T20:36:20.263Z,39.35
2022-07-28T20:38:48.145Z,39.31
2022-07-28T20:41:16.256Z,39.36
2022-07-28T20:43:44.482Z,39.72
2022-07-28T20:46:12.600Z,39.46
2022-07-28T20:48:40.727Z,39.40
2022-07-28T20:51:08.927Z,40.11
2022-07-28T20:53:38.399Z,39.60
2022-07-28T20:56:06.332Z,39.31
2022-07-28T20:58:34.448Z,39.45
2022-07-28T21:01:02.847Z,39.78
2022-07-28T21:03:30.960Z,41.06
2022-07-28T21:05:59.110Z,40.54
2022-07-28T21:08:27.339Z,40.74
2022-07-28T21:10:56.878Z,41.35
2022-07-28T21:13:25.003Z,41.84
2022-07-28T21:15:53.194Z,42.37
2022-07-28T21:18:21.269Z,43.53
2022-07-28T21:20:49.455Z,43.67
2022-07-28T21:23:18.789Z,44.04
2022-07-28T21:25:48.493Z,44.41
2022-07-28T21:28:35.447Z,43.95
2022-07-28T21:31:03.579Z,44.14
2022-07-28T21:33:31.720Z,44.38
2022-07-28T21:35:59.789Z,44.69
2022-07-28T21:38:27.994Z,44.22
2022-07-28T21:40:57.101Z,44.67
2022-07-28T21:43:26.578Z,45.27
2022-07-28T21:45:54.826Z,45.72
2022-07-28T21:48:24.981Z,45.35
2022-07-28T21:50:54.031Z,45.79
2022-07-28T21:53:22.368Z,45.84
2022-07-28T21:55:50.561Z,46.18
2022-07-28T21:58:18.599Z,46.37
2022-07-28T22:00:48.178Z,44.83
2022-07-28T22:03:16.399Z,45.30
2022-07-28T22:05:44.857Z,46.47
2022-07-28T22:08:13.177Z,46.77
2022-07-28T22:10:41.641Z,47.36
2022-07-28T22:13:09.817Z,47.80
2022-07-28T22:15:38.260Z,47.80
2022-07-28T22:18:07.806Z,47.16
2022-07-28T22:20:35.694Z,46.81
2022-07-28T22:23:03.889Z,46.88
2022-07-28T22:25:46.809Z,47.08
2022-07-28T22:28:16.108Z,45.29
2022-07-28T22:30:46.518Z,45.21
2022-07-28T22:33:16.044Z,45.30
2022-07-28T22:35:44.014Z,44.51
2022-07-28T22:38:12.111Z,44.17
2022-07-28T22:40:40.172Z,44.01
2022-07-28T22:43:08.200Z,44.15
2022-07-28T22:45:50.355Z,43.97
2022-07-28T22:48:20.969Z,43.63
2022-07-28T22:50:48.953Z,43.85
2022-07-28T22:53:17.057Z,43.36
2022-07-28T22:55:45.346Z,43.34
2022-07-28T22:58:13.523Z,43.47
2022-07-28T23:00:42.120Z,44.49
2022-07-28T23:03:13.114Z,45.59
2022-07-28T23:05:44.557Z,46.54
2022-07-28T23:08:13.061Z,46.86
2022-07-28T23:10:41.188Z,47.42
2022-07-28T23:13:09.251Z,49.20
2022-07-28T23:15:41.342Z,51.94
2022-07-28T23:18:10.257Z,51.12
2022-07-28T23:20:39.237Z,53.73
2022-07-28T23:23:09.000Z,51.26
2022-07-28T23:25:40.320Z,50.96
2022-07-28T23:28:08.737Z,51.13
2022-07-28T23:30:36.976Z,52.44
2022-07-28T23:33:05.082Z,52.90
2022-07-28T23:35:33.378Z,54.89
2022-07-28T23:38:01.505Z,56.26
2022-07-28T23:40:31.254Z,57.91
2022-07-28T23:42:59.379Z,58.68
2022-07-28T23:45:27.807Z,57.96
2022-07-28T23:47:58.825Z,58.32
2022-07-28T23:50:27.329Z,58.96
2022-07-28T23:52:55.475Z,58.53
2022-07-28T23:55:25.671Z,57.32
2022-07-28T23:57:55.153Z,57.08
